St Solene — FVDG — position and weather

sailwx.info

Track history (hours):
 
Tides and Currents Weather Stations Pressure Air Temp Water Temp Dewpoint Dewpoint Depression Visibility Wind Speed Wind Dir Waves Ship Positions

St Solene

Last reported at 2017-Oct-18 15:27 UTC. Time now 2017-Oct-20 05:11 UTC.
Position N 42°59' E 005°12'.

Length 104 m; draft 6.4 m.

Type: Tanker. MMSI: 226302000.

Date/timePositionNaut miles runAvg speedWind from/ knotsBaromVisibWave heightAir tempDewpointWater temp
2017-Oct-18 15:27N 42°59' E 005°12'510.7
2017-Oct-18 15:00N 43°01' E 005°06'1110.7
2017-Oct-18 14:00N 43°11' E 005°01'611.2
2017-Oct-18 13:30N 43°17' E 004°59'611.1
2017-Oct-18 13:00N 43°22' E 004°58'2 4.1
2017-Oct-18 12:30N 43°24' E 004°56'3 5.0
2017-Oct-18 12:00N 43°26' E 004°54'0 0.0
2017-Oct-18 11:30N 43°26' E 004°54'0 0.0
2017-Oct-18 10:54N 43°26' E 004°54'0 0.0
2017-Oct-18 10:30N 43°26' E 004°54'0 0.0
2017-Oct-18 10:00N 43°26' E 004°54'0 0.0
2017-Oct-18 09:30N 43°26' E 004°54'0 0.0
2017-Oct-18 09:00N 43°26' E 004°54'0 0.0
2017-Oct-18 08:30N 43°26' E 004°54'0 0.0
2017-Oct-18 08:00N 43°26' E 004°54'0 0.0
2017-Oct-18 07:30N 43°26' E 004°54'0 0.0
2017-Oct-18 07:00N 43°26' E 004°54'0 0.0
2017-Oct-18 06:30N 43°26' E 004°54'0 0.0
2017-Oct-18 06:00N 43°26' E 004°54'0 0.0
2017-Oct-18 05:30N 43°26' E 004°54'0 0.0
2017-Oct-18 05:00N 43°26' E 004°54'0 0.0
2017-Oct-18 04:30N 43°26' E 004°54'0 0.0
2017-Oct-18 03:57N 43°26' E 004°54'0 0.0
2017-Oct-18 03:30N 43°26' E 004°54'0 0.0
2017-Oct-18 03:00N 43°26' E 004°54'0 0.0
2017-Oct-18 02:30N 43°26' E 004°54'0 0.0
2017-Oct-18 02:00N 43°26' E 004°54'0 0.0
2017-Oct-18 01:27N 43°26' E 004°54'0 0.0
2017-Oct-18 01:00N 43°26' E 004°54'0 0.0
2017-Oct-18 00:27N 43°26' E 004°54'0 0.0
2017-Oct-18 00:00N 43°26' E 004°54'0 0.0
2017-Oct-17 23:30N 43°26' E 004°54'0 0.0
2017-Oct-17 22:54N 43°26' E 004°54'0 0.0
2017-Oct-17 22:30N 43°26' E 004°54'0 0.0
2017-Oct-17 20:42N 43°26' E 004°54'0 0.0
2017-Oct-17 19:06N 43°26' E 004°54'0 0.0
2017-Oct-17 19:00N 43°26' E 004°54'0 0.0
2017-Oct-17 18:24N 43°26' E 004°54'0 0.0
2017-Oct-17 18:00N 43°26' E 004°54'0 0.0
2017-Oct-17 17:30N 43°26' E 004°54'0 0.0
2017-Oct-17 17:00N 43°26' E 004°54'2 3.1
2017-Oct-17 16:30N 43°24' E 004°54'4 7.9
2017-Oct-17 15:58N 43°24' E 004°60'0 0.0
2017-Oct-17 15:28N 43°24' E 004°60'0 0.0
2017-Oct-17 14:58N 43°24' E 004°60'0 0.0
2017-Oct-17 14:28N 43°24' E 004°60'0 0.0
2017-Oct-17 13:58N 43°24' E 004°60'0 0.0
2017-Oct-17 13:28N 43°24' E 004°60'0 0.0
2017-Oct-17 12:58N 43°24' E 004°60'0 0.0
2017-Oct-17 12:28N 43°24' E 004°60'0 0.0
2017-Oct-17 11:58N 43°24' E 004°60'0 0.0
2017-Oct-17 11:28N 43°24' E 004°60'0 0.0
2017-Oct-17 10:58N 43°24' E 004°60'0 0.0
2017-Oct-17 10:28N 43°24' E 004°60'0 0.0
2017-Oct-17 09:58N 43°24' E 004°60'0 0.0
2017-Oct-17 09:28N 43°24' E 004°60'0 0.0
2017-Oct-17 08:58N 43°24' E 004°60'0 0.0
2017-Oct-17 08:25N 43°24' E 004°60'0 0.0
2017-Oct-17 07:58N 43°24' E 004°60'0 0.0
2017-Oct-17 07:28N 43°24' E 004°60'0 0.0
2017-Oct-17 06:58N 43°24' E 004°60'0 0.0
2017-Oct-17 06:28N 43°24' E 004°60'0 0.0
2017-Oct-17 05:58N 43°24' E 004°60'0 0.0
2017-Oct-17 05:28N 43°24' E 004°60'0 0.0
2017-Oct-17 04:58N 43°24' E 004°60'0 0.0
2017-Oct-17 04:28N 43°24' E 004°60'0 0.0
2017-Oct-17 03:58N 43°24' E 004°60'0 0.0
2017-Oct-17 03:16N 43°24' E 004°60'0 0.0
2017-Oct-17 02:58N 43°24' E 004°60'0 0.0
2017-Oct-17 02:28N 43°24' E 004°60'0 0.0
2017-Oct-17 01:58N 43°24' E 004°60'0 0.0
2017-Oct-17 01:28N 43°24' E 004°60'0 0.0
2017-Oct-17 00:58N 43°24' E 004°60'0 0.0
2017-Oct-17 00:28N 43°24' E 004°60'0 0.0
2017-Oct-16 23:58N 43°24' E 004°60'0 0.0
2017-Oct-16 23:28N 43°24' E 004°60'0 0.0
2017-Oct-16 22:59N 43°24' E 004°60'1 1.1
2017-Oct-16 22:30N 43°24' E 004°59'2 4.6
2017-Oct-16 22:00N 43°25' E 004°56'0 0.1
2017-Oct-16 21:26N 43°25' E 004°56'0 0.1
2017-Oct-16 20:59N 43°25' E 004°56'0 0.0
2017-Oct-16 20:26N 43°25' E 004°56'0 0.0
2017-Oct-16 19:59N 43°25' E 004°56'0 0.0
2017-Oct-16 19:29N 43°25' E 004°56'0 0.0
2017-Oct-16 18:56N 43°25' E 004°56'0 0.0
2017-Oct-16 18:05N 43°25' E 004°56'0 0.0
2017-Oct-16 17:53N 43°25' E 004°56'0 0.0
2017-Oct-16 17:29N 43°25' E 004°56'0 0.0
2017-Oct-16 16:53N 43°25' E 004°56'0 0.0
2017-Oct-16 16:29N 43°25' E 004°56'0 0.0
2017-Oct-16 15:59N 43°25' E 004°56'0 0.0
2017-Oct-16 15:29N 43°25' E 004°56'0 0.0
2017-Oct-16 14:59N 43°25' E 004°56'0 0.0
2017-Oct-16 13:56N 43°25' E 004°56'0 0.0
2017-Oct-16 13:26N 43°25' E 004°56'0 0.0
2017-Oct-16 12:59N 43°25' E 004°56'0 0.0
2017-Oct-16 12:29N 43°25' E 004°56'0 0.0
2017-Oct-16 11:56N 43°25' E 004°56'0 0.0
2017-Oct-16 11:29N 43°25' E 004°56'0 0.0
2017-Oct-16 10:59N 43°25' E 004°56'0 0.1
2017-Oct-16 10:26N 43°25' E 004°56'0 0.1
2017-Oct-16 09:59N 43°25' E 004°56'0 0.1
2017-Oct-16 09:29N 43°25' E 004°56'0 0.0
2017-Oct-16 08:35N 43°25' E 004°56'0 0.0
2017-Oct-16 08:14N 43°25' E 004°56'0 0.0
2017-Oct-16 07:59N 43°25' E 004°56'0 0.0
2017-Oct-16 07:29N 43°25' E 004°56'0 0.1
2017-Oct-16 06:59N 43°25' E 004°56'0 0.0
2017-Oct-16 06:29N 43°25' E 004°56'0 0.1
2017-Oct-16 05:59N 43°25' E 004°56'0 0.0
2017-Oct-16 05:26N 43°25' E 004°56'0 0.0
2017-Oct-16 04:53N 43°25' E 004°56'0 0.0
2017-Oct-16 04:29N 43°25' E 004°56'0 0.0
2017-Oct-16 03:59N 43°25' E 004°56'0 0.0
2017-Oct-16 03:29N 43°25' E 004°56'0 0.0
2017-Oct-16 02:50N 43°25' E 004°56'0 0.0
2017-Oct-16 02:29N 43°25' E 004°56'0 0.0
2017-Oct-16 01:50N 43°25' E 004°56'0 0.0
2017-Oct-16 01:20N 43°25' E 004°56'0 0.0
2017-Oct-16 00:59N 43°25' E 004°56'0 0.0
2017-Oct-16 00:17N 43°25' E 004°56'0 0.0
2017-Oct-15 23:59N 43°25' E 004°56'0 0.0
2017-Oct-15 23:29N 43°25' E 004°56'0 0.0
2017-Oct-15 22:29N 43°25' E 004°56'0 0.0
2017-Oct-15 21:32N 43°25' E 004°56'0 0.0
2017-Oct-15 21:17N 43°25' E 004°56'0 0.0
2017-Oct-15 20:59N 43°25' E 004°56'0 0.0
2017-Oct-15 20:29N 43°25' E 004°56'0 0.0
2017-Oct-15 19:56N 43°25' E 004°56'0 0.0
2017-Oct-15 19:29N 43°25' E 004°56'0 0.0
2017-Oct-15 18:56N 43°25' E 004°56'0 0.0
2017-Oct-15 18:29N 43°25' E 004°56'0 0.0
2017-Oct-15 17:59N 43°25' E 004°56'0 0.0
2017-Oct-15 17:29N 43°25' E 004°56'0 0.0
2017-Oct-15 16:59N 43°25' E 004°56'0 0.0
2017-Oct-15 16:17N 43°25' E 004°56'0 0.0
2017-Oct-15 15:47N 43°25' E 004°56'0 0.0
2017-Oct-15 15:29N 43°25' E 004°56'0 0.0
2017-Oct-15 14:59N 43°25' E 004°56'0 0.0
2017-Oct-15 13:53N 43°25' E 004°56'0 0.0
2017-Oct-15 13:05N 43°25' E 004°56'0 0.1
2017-Oct-15 12:50N 43°25' E 004°56'0 0.0
2017-Oct-15 12:23N 43°25' E 004°56'0 0.0
2017-Oct-15 11:53N 43°25' E 004°56'0 0.0
2017-Oct-15 11:26N 43°25' E 004°56'0 0.0
2017-Oct-15 10:53N 43°25' E 004°56'0 0.0
2017-Oct-15 10:26N 43°25' E 004°56'0 0.1
2017-Oct-15 09:59N 43°25' E 004°56'0 0.1
2017-Oct-15 09:23N 43°25' E 004°56'0 0.0
2017-Oct-15 08:59N 43°25' E 004°56'0 0.0
2017-Oct-15 08:29N 43°25' E 004°56'0 0.0
2017-Oct-15 07:59N 43°25' E 004°56'0 0.0
2017-Oct-15 07:29N 43°25' E 004°56'0 0.0
2017-Oct-15 06:50N 43°25' E 004°56'0 0.0
2017-Oct-15 06:29N 43°25' E 004°56'0 0.0
2017-Oct-15 05:59N 43°25' E 004°56'0 0.0
2017-Oct-15 05:26N 43°25' E 004°56'0 0.0
2017-Oct-15 04:59N 43°25' E 004°56'0 0.0
2017-Oct-15 04:20N 43°25' E 004°56'0 0.0
2017-Oct-15 03:50N 43°25' E 004°56'0 0.0
2017-Oct-15 03:29N 43°25' E 004°56'0 0.0
2017-Oct-15 02:53N 43°25' E 004°56'0 0.0
2017-Oct-15 02:29N 43°25' E 004°56'0 0.0
2017-Oct-15 01:59N 43°25' E 004°56'0 0.0
2017-Oct-15 01:26N 43°25' E 004°56'0 0.0
2017-Oct-15 00:59N 43°25' E 004°56'0 0.0
2017-Oct-15 00:20N 43°25' E 004°56'0 0.0
2017-Oct-14 23:47N 43°25' E 004°56'0 0.0
2017-Oct-14 23:29N 43°25' E 004°56'0 0.0
2017-Oct-14 22:41N 43°25' E 004°56'0 0.0
2017-Oct-14 22:20N 43°25' E 004°56'0 0.0
2017-Oct-14 21:56N 43°25' E 004°56'0 0.0
2017-Oct-14 21:29N 43°25' E 004°56'0 0.0
2017-Oct-14 20:56N 43°25' E 004°56'0 0.0
2017-Oct-14 20:29N 43°25' E 004°56'0 0.0
2017-Oct-14 19:59N 43°25' E 004°56'0 0.0
2017-Oct-14 19:26N 43°25' E 004°56'0 0.0
2017-Oct-14 18:14N 43°25' E 004°56'0 0.0
2017-Oct-14 17:59N 43°25' E 004°56'0 0.0
2017-Oct-14 17:29N 43°25' E 004°56'0 0.0
2017-Oct-14 16:59N 43°25' E 004°56'0 0.0
2017-Oct-14 16:29N 43°25' E 004°56'0 0.0
2017-Oct-14 15:47N 43°25' E 004°56'0 0.1
2017-Oct-14 15:29N 43°25' E 004°56'0 0.0
2017-Oct-14 14:59N 43°25' E 004°56'0 0.0
2017-Oct-14 14:29N 43°25' E 004°56'0 0.0
2017-Oct-14 13:59N 43°25' E 004°56'0 0.0
2017-Oct-14 13:23N 43°25' E 004°56'0 0.0
2017-Oct-14 12:56N 43°25' E 004°56'0 0.0
2017-Oct-14 12:23N 43°25' E 004°56'0 0.0
2017-Oct-14 11:59N 43°25' E 004°56'0 0.1
2017-Oct-14 11:29N 43°25' E 004°56'0 0.0
2017-Oct-14 10:59N 43°25' E 004°56'0 0.0
2017-Oct-14 10:14N 43°25' E 004°56'0 0.0
2017-Oct-14 09:53N 43°25' E 004°56'0 0.0
2017-Oct-14 09:26N 43°25' E 004°56'0 0.0
2017-Oct-14 08:59N 43°25' E 004°56'0 0.0
2017-Oct-14 08:29N 43°25' E 004°56'0 0.0
2017-Oct-14 07:50N 43°25' E 004°56'0 0.1
2017-Oct-14 07:29N 43°25' E 004°56'0 0.0
2017-Oct-14 06:53N 43°25' E 004°56'0 0.0
2017-Oct-14 06:29N 43°25' E 004°56'0 0.0
2017-Oct-14 05:47N 43°25' E 004°56'0 0.0
2017-Oct-14 05:14N 43°25' E 004°56'0 0.0
2017-Oct-14 04:44N 43°25' E 004°56'0 0.0
2017-Oct-14 04:26N 43°25' E 004°56'0 0.0
2017-Oct-14 03:53N 43°25' E 004°56'0 0.1
2017-Oct-14 03:29N 43°25' E 004°56'0 0.0
2017-Oct-14 02:59N 43°25' E 004°56'0 0.0
2017-Oct-14 02:26N 43°25' E 004°56'0 0.0
2017-Oct-14 01:59N 43°25' E 004°56'0 0.0
2017-Oct-14 01:20N 43°25' E 004°56'0 0.0
2017-Oct-14 00:59N 43°25' E 004°56'0 0.0
2017-Oct-14 00:29N 43°25' E 004°56'0 0.0
2017-Oct-13 23:56N 43°25' E 004°56'0 0.0
2017-Oct-13 23:26N 43°25' E 004°56'0 0.0
2017-Oct-13 22:59N 43°25' E 004°56'0 0.0
2017-Oct-13 22:14N 43°25' E 004°56'0 0.0
2017-Oct-13 21:59N 43°25' E 004°56'0 0.0
2017-Oct-13 21:26N 43°25' E 004°56'0 0.0
2017-Oct-13 20:56N 43°25' E 004°56'0 0.0
2017-Oct-13 20:20N 43°25' E 004°56'0 0.0
2017-Oct-13 19:56N 43°25' E 004°56'0 0.0
2017-Oct-13 19:29N 43°25' E 004°56'0 0.0
2017-Oct-13 18:59N 43°25' E 004°56'0 0.0
2017-Oct-13 18:29N 43°25' E 004°56'0 0.0
2017-Oct-13 17:59N 43°25' E 004°56'0 0.0
2017-Oct-13 17:30N 43°25' E 004°56'0 0.0
2017-Oct-13 17:00N 43°25' E 004°56'0 0.0
2017-Oct-13 16:30N 43°25' E 004°56'0 0.0
2017-Oct-13 16:00N 43°25' E 004°56'0 0.0
2017-Oct-13 15:30N 43°25' E 004°56'0 0.0
2017-Oct-13 15:00N 43°25' E 004°56'0 0.0
2017-Oct-13 14:31N 43°25' E 004°56'0 0.0
2017-Oct-13 14:00N 43°25' E 004°56'0 0.0
2017-Oct-13 13:31N 43°25' E 004°56'0 0.0
2017-Oct-13 13:00N 43°25' E 004°56'0 0.0
2017-Oct-13 12:30N 43°25' E 004°56'0 0.0
2017-Oct-13 12:00N 43°25' E 004°56'0 0.0
2017-Oct-13 11:30N 43°25' E 004°56'0 0.0
2017-Oct-13 11:00N 43°25' E 004°56'0 0.0
2017-Oct-13 10:30N 43°25' E 004°56'0 0.0
2017-Oct-13 10:01N 43°25' E 004°56'0 0.0
2017-Oct-13 09:30N 43°25' E 004°56'0 0.0
2017-Oct-13 09:00N 43°25' E 004°56'0 0.0
2017-Oct-13 08:30N 43°25' E 004°56'0 0.0
2017-Oct-13 08:00N 43°25' E 004°56'0 0.0
2017-Oct-13 07:30N 43°25' E 004°56'0 0.0
2017-Oct-13 07:00N 43°25' E 004°56'0 0.0
2017-Oct-13 06:30N 43°25' E 004°56'0 0.0
2017-Oct-13 06:00N 43°25' E 004°56'0 0.0
2017-Oct-13 05:30N 43°25' E 004°56'0 0.0
2017-Oct-13 04:59N 43°25' E 004°56'0 0.0
2017-Oct-13 04:30N 43°25' E 004°56'0 0.0
2017-Oct-13 04:01N 43°25' E 004°56'0 0.0
2017-Oct-13 03:30N 43°25' E 004°56'0 0.0
2017-Oct-13 03:00N 43°25' E 004°56'0 0.0
2017-Oct-13 02:30N 43°25' E 004°56'0 0.0
2017-Oct-13 02:00N 43°25' E 004°56'0 0.0
2017-Oct-13 01:30N 43°25' E 004°56'0 0.0
2017-Oct-13 01:01N 43°25' E 004°56'0 0.0
2017-Oct-13 00:30N 43°25' E 004°56'0 0.0
2017-Oct-13 00:01N 43°25' E 004°56'0 0.0
2017-Oct-12 23:31N 43°25' E 004°56'0 0.0
2017-Oct-12 23:00N 43°25' E 004°56'0 0.0
2017-Oct-12 22:30N 43°25' E 004°56'0 0.1
2017-Oct-12 21:59N 43°25' E 004°56'0 0.1
2017-Oct-12 21:30N 43°25' E 004°56'0 0.1
2017-Oct-12 21:00N 43°25' E 004°56'4 8.8
2017-Oct-12 20:31N 43°21' E 004°59'611.8
2017-Oct-12 20:00N 43°15' E 005°01'611.5
2017-Oct-12 19:30N 43°12' E 005°08'612.2
2017-Oct-12 19:00N 43°17' E 005°11'612.6
2017-Oct-12 18:29N 43°21' E 005°19'3 4.9
2017-Oct-12 17:56N 43°19' E 005°21'0 0.0
2017-Oct-12 17:29N 43°19' E 005°21'0 0.0
2017-Oct-12 16:50N 43°19' E 005°21'0 0.0
2017-Oct-12 16:26N 43°19' E 005°21'0 0.0
2017-Oct-12 15:56N 43°19' E 005°21'0 0.0
2017-Oct-12 07:24N 43°19' E 005°21'1 3.4
2017-Oct-12 07:00N 43°18' E 005°20'4 7.6
2017-Oct-12 06:29N 43°19' E 005°15'711.9
2017-Oct-12 05:55N 43°13' E 005°10'12 9.0
2017-Oct-12 04:32N 43°21' E 004°58'012.6
2017-Oct-12 04:30N 43°21' E 004°58'4 0.1
2017-Oct-11 00:00N 43°25' E 004°56'0 0.0
2017-Oct-10 23:30N 43°25' E 004°56'0 0.0
2017-Oct-10 23:00N 43°25' E 004°56'0 0.0
2017-Oct-10 22:30N 43°25' E 004°56'0 0.0
2017-Oct-10 22:00N 43°25' E 004°56'0 0.0
2017-Oct-10 21:30N 43°25' E 004°56'0 0.0
2017-Oct-10 21:00N 43°25' E 004°56'0 0.0
2017-Oct-10 20:30N 43°25' E 004°56'0 0.0
2017-Oct-10 20:00N 43°25' E 004°56'0 0.0
2017-Oct-10 19:30N 43°25' E 004°56'0 0.0
2017-Oct-10 19:00N 43°25' E 004°56'0 0.0
2017-Oct-10 18:30N 43°25' E 004°56'0 0.0
2017-Oct-10 18:00N 43°25' E 004°56'0 0.0
2017-Oct-10 17:30N 43°25' E 004°56'0 0.0
2017-Oct-10 16:54N 43°25' E 004°56'0 0.0
2017-Oct-10 16:30N 43°25' E 004°56'0 0.0
2017-Oct-10 16:00N 43°25' E 004°56'0 0.0
2017-Oct-10 15:30N 43°25' E 004°56'0 0.0
2017-Oct-10 15:00N 43°25' E 004°56'0 0.0
2017-Oct-10 13:57N 43°25' E 004°55'0 0.0
2017-Oct-10 13:30N 43°25' E 004°55'0 0.0
2017-Oct-10 13:00N 43°25' E 004°55'0 0.1
2017-Oct-10 12:30N 43°25' E 004°55'0 0.1
2017-Oct-10 11:57N 43°25' E 004°55'0 0.0
2017-Oct-10 11:30N 43°25' E 004°55'0 0.0
2017-Oct-10 10:57N 43°25' E 004°55'0 0.0
2017-Oct-10 10:30N 43°25' E 004°55'0 0.0
2017-Oct-10 10:00N 43°25' E 004°55'0 0.0
2017-Oct-10 09:30N 43°25' E 004°55'0 0.0
2017-Oct-10 08:57N 43°25' E 004°55'0 0.0
2017-Oct-10 08:30N 43°25' E 004°55'0 0.0
2017-Oct-10 08:00N 43°25' E 004°55'0 0.0
2017-Oct-10 07:30N 43°25' E 004°55'0 0.0
2017-Oct-10 07:00N 43°25' E 004°55'0 0.0
2017-Oct-10 06:30N 43°25' E 004°55'0 0.0
2017-Oct-10 06:00N 43°25' E 004°55'0 0.0
2017-Oct-10 05:30N 43°25' E 004°56'0 0.0
2017-Oct-10 05:00N 43°25' E 004°56'0 0.0
2017-Oct-10 04:30N 43°25' E 004°56'0 0.0
2017-Oct-10 04:00N 43°25' E 004°56'0 0.0
2017-Oct-10 03:30N 43°25' E 004°55'0 0.0
2017-Oct-10 03:00N 43°25' E 004°55'0 0.0
2017-Oct-10 02:30N 43°25' E 004°55'0 0.0
2017-Oct-10 02:00N 43°25' E 004°55'0 0.0
2017-Oct-10 01:30N 43°25' E 004°55'0 0.0
2017-Oct-10 01:00N 43°25' E 004°55'0 0.1
2017-Oct-10 00:30N 43°25' E 004°56'0 0.0
2017-Oct-09 23:57N 43°25' E 004°56'0 0.0
2017-Oct-09 23:30N 43°25' E 004°56'0 0.0
2017-Oct-09 23:00N 43°25' E 004°56'0 0.0
2017-Oct-09 22:30N 43°25' E 004°56'0 0.0
2017-Oct-09 22:00N 43°25' E 004°56'0 0.0
2017-Oct-09 21:30N 43°25' E 004°55'0 0.0
2017-Oct-09 21:00N 43°25' E 004°55'0 0.0
2017-Oct-09 20:30N 43°25' E 004°55'0 0.1
2017-Oct-09 20:00N 43°25' E 004°56'0 0.0
2017-Oct-09 19:30N 43°25' E 004°56'0 0.0
2017-Oct-09 19:00N 43°25' E 004°56'0 0.0
2017-Oct-09 18:30N 43°25' E 004°55'0 0.0
2017-Oct-09 18:00N 43°25' E 004°55'0 0.0
2017-Oct-09 17:30N 43°25' E 004°55'0 0.0
2017-Oct-09 17:00N 43°25' E 004°55'0 0.0
2017-Oct-09 16:30N 43°25' E 004°55'0 0.0
2017-Oct-09 16:00N 43°25' E 004°55'0 0.0
2017-Oct-09 15:27N 43°25' E 004°55'0 0.0
2017-Oct-09 15:00N 43°25' E 004°55'0 0.0
2017-Oct-09 14:30N 43°25' E 004°55'0 0.0
2017-Oct-09 14:00N 43°25' E 004°55'0 0.0
2017-Oct-09 13:30N 43°25' E 004°55'0 0.1
2017-Oct-09 13:00N 43°25' E 004°55'0 0.1
2017-Oct-09 12:30N 43°25' E 004°55'0 0.1
2017-Oct-09 12:00N 43°25' E 004°56'0 0.1
2017-Oct-09 11:30N 43°25' E 004°55'0 0.0
2017-Oct-09 11:00N 43°25' E 004°55'0 0.1
2017-Oct-09 10:30N 43°25' E 004°55'0 0.0
2017-Oct-09 10:00N 43°25' E 004°55'0 0.0
2017-Oct-09 09:30N 43°25' E 004°55'0 0.0
2017-Oct-09 09:00N 43°25' E 004°55'0 0.0
2017-Oct-09 08:27N 43°25' E 004°55'0 0.0
2017-Oct-09 08:00N 43°25' E 004°55'0 0.0
2017-Oct-09 07:30N 43°25' E 004°56'0 0.0
2017-Oct-09 06:45N 43°25' E 004°55'0 0.0
2017-Oct-09 06:30N 43°25' E 004°55'0 0.0
2017-Oct-09 05:57N 43°25' E 004°55'0 0.0
2017-Oct-09 05:21N 43°25' E 004°55'0 0.0
2017-Oct-09 05:00N 43°25' E 004°55'0 0.0
2017-Oct-09 04:30N 43°25' E 004°55'0 0.0
2017-Oct-09 02:27N 43°25' E 004°55'0 0.0
2017-Oct-09 02:00N 43°25' E 004°55'0 0.0
2017-Oct-09 01:24N 43°25' E 004°55'0 0.0
2017-Oct-09 00:27N 43°25' E 004°55'0 0.0
2017-Oct-09 00:00N 43°25' E 004°55'0 0.0
2017-Oct-08 23:30N 43°25' E 004°55'0 0.0
2017-Oct-08 22:54N 43°25' E 004°55'0 0.0
2017-Oct-08 22:30N 43°25' E 004°55'0 0.0
2017-Oct-08 20:33N 43°25' E 004°55'0 0.1
2017-Oct-08 20:30N 43°25' E 004°55'0 0.0
2017-Oct-08 20:00N 43°25' E 004°55'0 0.0
2017-Oct-08 19:27N 43°25' E 004°55'0 0.0
2017-Oct-08 18:03N 43°25' E 004°55'0 0.0
2017-Oct-08 18:00N 43°25' E 004°55'0 0.0
2017-Oct-08 17:27N 43°25' E 004°55'0 0.0
2017-Oct-08 16:21N 43°25' E 004°55'0 0.0
2017-Oct-08 16:00N 43°25' E 004°55'  
Track history (hours):
 
Tides and Currents Weather Stations Pressure Air Temp Water Temp Dewpoint Dewpoint Depression Visibility Wind Speed Wind Dir Waves Ship Positions

St Solene

Last reported at 2017-Oct-18 15:27 UTC. Time now 2017-Oct-20 05:11 UTC.
Position N 42°59' E 005°12'.

Length 104 m; draft 6.4 m.

Type: Tanker. MMSI: 226302000.

Date/timePositionNaut miles runAvg speedWind from/ knotsBaromVisibWave heightAir tempDewpointWater temp
2017-Oct-18 15:27N 42°59' E 005°12'510.7
2017-Oct-18 15:00N 43°01' E 005°06'1110.7
2017-Oct-18 14:00N 43°11' E 005°01'611.2
2017-Oct-18 13:30N 43°17' E 004°59'611.1
2017-Oct-18 13:00N 43°22' E 004°58'2 4.1
2017-Oct-18 12:30N 43°24' E 004°56'3 5.0
2017-Oct-18 12:00N 43°26' E 004°54'0 0.0
2017-Oct-18 11:30N 43°26' E 004°54'0 0.0
2017-Oct-18 10:54N 43°26' E 004°54'0 0.0
2017-Oct-18 10:30N 43°26' E 004°54'0 0.0
2017-Oct-18 10:00N 43°26' E 004°54'0 0.0
2017-Oct-18 09:30N 43°26' E 004°54'0 0.0
2017-Oct-18 09:00N 43°26' E 004°54'0 0.0
2017-Oct-18 08:30N 43°26' E 004°54'0 0.0
2017-Oct-18 08:00N 43°26' E 004°54'0 0.0
2017-Oct-18 07:30N 43°26' E 004°54'0 0.0
2017-Oct-18 07:00N 43°26' E 004°54'0 0.0
2017-Oct-18 06:30N 43°26' E 004°54'0 0.0
2017-Oct-18 06:00N 43°26' E 004°54'0 0.0
2017-Oct-18 05:30N 43°26' E 004°54'0 0.0
2017-Oct-18 05:00N 43°26' E 004°54'0 0.0
2017-Oct-18 04:30N 43°26' E 004°54'0 0.0
2017-Oct-18 03:57N 43°26' E 004°54'0 0.0
2017-Oct-18 03:30N 43°26' E 004°54'0 0.0
2017-Oct-18 03:00N 43°26' E 004°54'0 0.0
2017-Oct-18 02:30N 43°26' E 004°54'0 0.0
2017-Oct-18 02:00N 43°26' E 004°54'0 0.0
2017-Oct-18 01:27N 43°26' E 004°54'0 0.0
2017-Oct-18 01:00N 43°26' E 004°54'0 0.0
2017-Oct-18 00:27N 43°26' E 004°54'0 0.0
2017-Oct-18 00:00N 43°26' E 004°54'0 0.0
2017-Oct-17 23:30N 43°26' E 004°54'0 0.0
2017-Oct-17 22:54N 43°26' E 004°54'0 0.0
2017-Oct-17 22:30N 43°26' E 004°54'0 0.0
2017-Oct-17 20:42N 43°26' E 004°54'0 0.0
2017-Oct-17 19:06N 43°26' E 004°54'0 0.0
2017-Oct-17 19:00N 43°26' E 004°54'0 0.0
2017-Oct-17 18:24N 43°26' E 004°54'0 0.0
2017-Oct-17 18:00N 43°26' E 004°54'0 0.0
2017-Oct-17 17:30N 43°26' E 004°54'0 0.0
2017-Oct-17 17:00N 43°26' E 004°54'2 3.1
2017-Oct-17 16:30N 43°24' E 004°54'4 7.9
2017-Oct-17 15:58N 43°24' E 004°60'0 0.0
2017-Oct-17 15:28N 43°24' E 004°60'0 0.0
2017-Oct-17 14:58N 43°24' E 004°60'0 0.0
2017-Oct-17 14:28N 43°24' E 004°60'0 0.0
2017-Oct-17 13:58N 43°24' E 004°60'0 0.0
2017-Oct-17 13:28N 43°24' E 004°60'0 0.0
2017-Oct-17 12:58N 43°24' E 004°60'0 0.0
2017-Oct-17 12:28N 43°24' E 004°60'0 0.0
2017-Oct-17 11:58N 43°24' E 004°60'0 0.0
2017-Oct-17 11:28N 43°24' E 004°60'0 0.0
2017-Oct-17 10:58N 43°24' E 004°60'0 0.0
2017-Oct-17 10:28N 43°24' E 004°60'0 0.0
2017-Oct-17 09:58N 43°24' E 004°60'0 0.0
2017-Oct-17 09:28N 43°24' E 004°60'0 0.0
2017-Oct-17 08:58N 43°24' E 004°60'0 0.0
2017-Oct-17 08:25N 43°24' E 004°60'0 0.0
2017-Oct-17 07:58N 43°24' E 004°60'0 0.0
2017-Oct-17 07:28N 43°24' E 004°60'0 0.0
2017-Oct-17 06:58N 43°24' E 004°60'0 0.0
2017-Oct-17 06:28N 43°24' E 004°60'0 0.0
2017-Oct-17 05:58N 43°24' E 004°60'0 0.0
2017-Oct-17 05:28N 43°24' E 004°60'0 0.0
2017-Oct-17 04:58N 43°24' E 004°60'0 0.0
2017-Oct-17 04:28N 43°24' E 004°60'0 0.0
2017-Oct-17 03:58N 43°24' E 004°60'0 0.0
2017-Oct-17 03:16N 43°24' E 004°60'0 0.0
2017-Oct-17 02:58N 43°24' E 004°60'0 0.0
2017-Oct-17 02:28N 43°24' E 004°60'0 0.0
2017-Oct-17 01:58N 43°24' E 004°60'0 0.0
2017-Oct-17 01:28N 43°24' E 004°60'0 0.0
2017-Oct-17 00:58N 43°24' E 004°60'0 0.0
2017-Oct-17 00:28N 43°24' E 004°60'0 0.0
2017-Oct-16 23:58N 43°24' E 004°60'0 0.0
2017-Oct-16 23:28N 43°24' E 004°60'0 0.0
2017-Oct-16 22:59N 43°24' E 004°60'1 1.1
2017-Oct-16 22:30N 43°24' E 004°59'2 4.6
2017-Oct-16 22:00N 43°25' E 004°56'0 0.1
2017-Oct-16 21:26N 43°25' E 004°56'0 0.1
2017-Oct-16 20:59N 43°25' E 004°56'0 0.0
2017-Oct-16 20:26N 43°25' E 004°56'0 0.0
2017-Oct-16 19:59N 43°25' E 004°56'0 0.0
2017-Oct-16 19:29N 43°25' E 004°56'0 0.0
2017-Oct-16 18:56N 43°25' E 004°56'0 0.0
2017-Oct-16 18:05N 43°25' E 004°56'0 0.0
2017-Oct-16 17:53N 43°25' E 004°56'0 0.0
2017-Oct-16 17:29N 43°25' E 004°56'0 0.0
2017-Oct-16 16:53N 43°25' E 004°56'0 0.0
2017-Oct-16 16:29N 43°25' E 004°56'0 0.0
2017-Oct-16 15:59N 43°25' E 004°56'0 0.0
2017-Oct-16 15:29N 43°25' E 004°56'0 0.0
2017-Oct-16 14:59N 43°25' E 004°56'0 0.0
2017-Oct-16 13:56N 43°25' E 004°56'0 0.0
2017-Oct-16 13:26N 43°25' E 004°56'0 0.0
2017-Oct-16 12:59N 43°25' E 004°56'0 0.0
2017-Oct-16 12:29N 43°25' E 004°56'0 0.0
2017-Oct-16 11:56N 43°25' E 004°56'0 0.0
2017-Oct-16 11:29N 43°25' E 004°56'0 0.0
2017-Oct-16 10:59N 43°25' E 004°56'0 0.1
2017-Oct-16 10:26N 43°25' E 004°56'0 0.1
2017-Oct-16 09:59N 43°25' E 004°56'0 0.1
2017-Oct-16 09:29N 43°25' E 004°56'0 0.0
2017-Oct-16 08:35N 43°25' E 004°56'0 0.0
2017-Oct-16 08:14N 43°25' E 004°56'0 0.0
2017-Oct-16 07:59N 43°25' E 004°56'0 0.0
2017-Oct-16 07:29N 43°25' E 004°56'0 0.1
2017-Oct-16 06:59N 43°25' E 004°56'0 0.0
2017-Oct-16 06:29N 43°25' E 004°56'0 0.1
2017-Oct-16 05:59N 43°25' E 004°56'0 0.0
2017-Oct-16 05:26N 43°25' E 004°56'0 0.0
2017-Oct-16 04:53N 43°25' E 004°56'0 0.0
2017-Oct-16 04:29N 43°25' E 004°56'0 0.0
2017-Oct-16 03:59N 43°25' E 004°56'0 0.0
2017-Oct-16 03:29N 43°25' E 004°56'0 0.0
2017-Oct-16 02:50N 43°25' E 004°56'0 0.0
2017-Oct-16 02:29N 43°25' E 004°56'0 0.0
2017-Oct-16 01:50N 43°25' E 004°56'0 0.0
2017-Oct-16 01:20N 43°25' E 004°56'0 0.0
2017-Oct-16 00:59N 43°25' E 004°56'0 0.0
2017-Oct-16 00:17N 43°25' E 004°56'0 0.0
2017-Oct-15 23:59N 43°25' E 004°56'0 0.0
2017-Oct-15 23:29N 43°25' E 004°56'0 0.0
2017-Oct-15 22:29N 43°25' E 004°56'0 0.0
2017-Oct-15 21:32N 43°25' E 004°56'0 0.0
2017-Oct-15 21:17N 43°25' E 004°56'0 0.0
2017-Oct-15 20:59N 43°25' E 004°56'0 0.0
2017-Oct-15 20:29N 43°25' E 004°56'0 0.0
2017-Oct-15 19:56N 43°25' E 004°56'0 0.0
2017-Oct-15 19:29N 43°25' E 004°56'0 0.0
2017-Oct-15 18:56N 43°25' E 004°56'0 0.0
2017-Oct-15 18:29N 43°25' E 004°56'0 0.0
2017-Oct-15 17:59N 43°25' E 004°56'0 0.0
2017-Oct-15 17:29N 43°25' E 004°56'0 0.0
2017-Oct-15 16:59N 43°25' E 004°56'0 0.0
2017-Oct-15 16:17N 43°25' E 004°56'0 0.0
2017-Oct-15 15:47N 43°25' E 004°56'0 0.0
2017-Oct-15 15:29N 43°25' E 004°56'0 0.0
2017-Oct-15 14:59N 43°25' E 004°56'0 0.0
2017-Oct-15 13:53N 43°25' E 004°56'0 0.0
2017-Oct-15 13:05N 43°25' E 004°56'0 0.1
2017-Oct-15 12:50N 43°25' E 004°56'0 0.0
2017-Oct-15 12:23N 43°25' E 004°56'0 0.0
2017-Oct-15 11:53N 43°25' E 004°56'0 0.0
2017-Oct-15 11:26N 43°25' E 004°56'0 0.0
2017-Oct-15 10:53N 43°25' E 004°56'0 0.0
2017-Oct-15 10:26N 43°25' E 004°56'0 0.1
2017-Oct-15 09:59N 43°25' E 004°56'0 0.1
2017-Oct-15 09:23N 43°25' E 004°56'0 0.0
2017-Oct-15 08:59N 43°25' E 004°56'0 0.0
2017-Oct-15 08:29N 43°25' E 004°56'0 0.0
2017-Oct-15 07:59N 43°25' E 004°56'0 0.0
2017-Oct-15 07:29N 43°25' E 004°56'0 0.0
2017-Oct-15 06:50N 43°25' E 004°56'0 0.0
2017-Oct-15 06:29N 43°25' E 004°56'0 0.0
2017-Oct-15 05:59N 43°25' E 004°56'0 0.0
2017-Oct-15 05:26N 43°25' E 004°56'0 0.0
2017-Oct-15 04:59N 43°25' E 004°56'0 0.0
2017-Oct-15 04:20N 43°25' E 004°56'0 0.0
2017-Oct-15 03:50N 43°25' E 004°56'0 0.0
2017-Oct-15 03:29N 43°25' E 004°56'0 0.0
2017-Oct-15 02:53N 43°25' E 004°56'0 0.0
2017-Oct-15 02:29N 43°25' E 004°56'0 0.0
2017-Oct-15 01:59N 43°25' E 004°56'0 0.0
2017-Oct-15 01:26N 43°25' E 004°56'0 0.0
2017-Oct-15 00:59N 43°25' E 004°56'0 0.0
2017-Oct-15 00:20N 43°25' E 004°56'0 0.0
2017-Oct-14 23:47N 43°25' E 004°56'0 0.0
2017-Oct-14 23:29N 43°25' E 004°56'0 0.0
2017-Oct-14 22:41N 43°25' E 004°56'0 0.0
2017-Oct-14 22:20N 43°25' E 004°56'0 0.0
2017-Oct-14 21:56N 43°25' E 004°56'0 0.0
2017-Oct-14 21:29N 43°25' E 004°56'0 0.0
2017-Oct-14 20:56N 43°25' E 004°56'0 0.0
2017-Oct-14 20:29N 43°25' E 004°56'0 0.0
2017-Oct-14 19:59N 43°25' E 004°56'0 0.0
2017-Oct-14 19:26N 43°25' E 004°56'0 0.0
2017-Oct-14 18:14N 43°25' E 004°56'0 0.0
2017-Oct-14 17:59N 43°25' E 004°56'0 0.0
2017-Oct-14 17:29N 43°25' E 004°56'0 0.0
2017-Oct-14 16:59N 43°25' E 004°56'0 0.0
2017-Oct-14 16:29N 43°25' E 004°56'0 0.0
2017-Oct-14 15:47N 43°25' E 004°56'0 0.1
2017-Oct-14 15:29N 43°25' E 004°56'0 0.0
2017-Oct-14 14:59N 43°25' E 004°56'0 0.0
2017-Oct-14 14:29N 43°25' E 004°56'0 0.0
2017-Oct-14 13:59N 43°25' E 004°56'0 0.0
2017-Oct-14 13:23N 43°25' E 004°56'0 0.0
2017-Oct-14 12:56N 43°25' E 004°56'0 0.0
2017-Oct-14 12:23N 43°25' E 004°56'0 0.0
2017-Oct-14 11:59N 43°25' E 004°56'0 0.1
2017-Oct-14 11:29N 43°25' E 004°56'0 0.0
2017-Oct-14 10:59N 43°25' E 004°56'0 0.0
2017-Oct-14 10:14N 43°25' E 004°56'0 0.0
2017-Oct-14 09:53N 43°25' E 004°56'0 0.0
2017-Oct-14 09:26N 43°25' E 004°56'0 0.0
2017-Oct-14 08:59N 43°25' E 004°56'0 0.0
2017-Oct-14 08:29N 43°25' E 004°56'0 0.0
2017-Oct-14 07:50N 43°25' E 004°56'0 0.1
2017-Oct-14 07:29N 43°25' E 004°56'0 0.0
2017-Oct-14 06:53N 43°25' E 004°56'0 0.0
2017-Oct-14 06:29N 43°25' E 004°56'0 0.0
2017-Oct-14 05:47N 43°25' E 004°56'0 0.0
2017-Oct-14 05:14N 43°25' E 004°56'0 0.0
2017-Oct-14 04:44N 43°25' E 004°56'0 0.0
2017-Oct-14 04:26N 43°25' E 004°56'0 0.0
2017-Oct-14 03:53N 43°25' E 004°56'0 0.1
2017-Oct-14 03:29N 43°25' E 004°56'0 0.0
2017-Oct-14 02:59N 43°25' E 004°56'0 0.0
2017-Oct-14 02:26N 43°25' E 004°56'0 0.0
2017-Oct-14 01:59N 43°25' E 004°56'0 0.0
2017-Oct-14 01:20N 43°25' E 004°56'0 0.0
2017-Oct-14 00:59N 43°25' E 004°56'0 0.0
2017-Oct-14 00:29N 43°25' E 004°56'0 0.0
2017-Oct-13 23:56N 43°25' E 004°56'0 0.0
2017-Oct-13 23:26N 43°25' E 004°56'0 0.0
2017-Oct-13 22:59N 43°25' E 004°56'0 0.0
2017-Oct-13 22:14N 43°25' E 004°56'0 0.0
2017-Oct-13 21:59N 43°25' E 004°56'0 0.0
2017-Oct-13 21:26N 43°25' E 004°56'0 0.0
2017-Oct-13 20:56N 43°25' E 004°56'0 0.0
2017-Oct-13 20:20N 43°25' E 004°56'0 0.0
2017-Oct-13 19:56N 43°25' E 004°56'0 0.0
2017-Oct-13 19:29N 43°25' E 004°56'0 0.0
2017-Oct-13 18:59N 43°25' E 004°56'0 0.0
2017-Oct-13 18:29N 43°25' E 004°56'0 0.0
2017-Oct-13 17:59N 43°25' E 004°56'0 0.0
2017-Oct-13 17:30N 43°25' E 004°56'0 0.0
2017-Oct-13 17:00N 43°25' E 004°56'0 0.0
2017-Oct-13 16:30N 43°25' E 004°56'0 0.0
2017-Oct-13 16:00N 43°25' E 004°56'0 0.0
2017-Oct-13 15:30N 43°25' E 004°56'0 0.0
2017-Oct-13 15:00N 43°25' E 004°56'0 0.0
2017-Oct-13 14:31N 43°25' E 004°56'0 0.0
2017-Oct-13 14:00N 43°25' E 004°56'0 0.0
2017-Oct-13 13:31N 43°25' E 004°56'0 0.0
2017-Oct-13 13:00N 43°25' E 004°56'0 0.0
2017-Oct-13 12:30N 43°25' E 004°56'0 0.0
2017-Oct-13 12:00N 43°25' E 004°56'0 0.0
2017-Oct-13 11:30N 43°25' E 004°56'0 0.0
2017-Oct-13 11:00N 43°25' E 004°56'0 0.0
2017-Oct-13 10:30N 43°25' E 004°56'0 0.0
2017-Oct-13 10:01N 43°25' E 004°56'0 0.0
2017-Oct-13 09:30N 43°25' E 004°56'0 0.0
2017-Oct-13 09:00N 43°25' E 004°56'0 0.0
2017-Oct-13 08:30N 43°25' E 004°56'0 0.0
2017-Oct-13 08:00N 43°25' E 004°56'0 0.0
2017-Oct-13 07:30N 43°25' E 004°56'0 0.0
2017-Oct-13 07:00N 43°25' E 004°56'0 0.0
2017-Oct-13 06:30N 43°25' E 004°56'0 0.0
2017-Oct-13 06:00N 43°25' E 004°56'0 0.0
2017-Oct-13 05:30N 43°25' E 004°56'0 0.0
2017-Oct-13 04:59N 43°25' E 004°56'0 0.0
2017-Oct-13 04:30N 43°25' E 004°56'0 0.0
2017-Oct-13 04:01N 43°25' E 004°56'0 0.0
2017-Oct-13 03:30N 43°25' E 004°56'0 0.0
2017-Oct-13 03:00N 43°25' E 004°56'0 0.0
2017-Oct-13 02:30N 43°25' E 004°56'0 0.0
2017-Oct-13 02:00N 43°25' E 004°56'0 0.0
2017-Oct-13 01:30N 43°25' E 004°56'0 0.0
2017-Oct-13 01:01N 43°25' E 004°56'0 0.0
2017-Oct-13 00:30N 43°25' E 004°56'0 0.0
2017-Oct-13 00:01N 43°25' E 004°56'0 0.0
2017-Oct-12 23:31N 43°25' E 004°56'0 0.0
2017-Oct-12 23:00N 43°25' E 004°56'0 0.0
2017-Oct-12 22:30N 43°25' E 004°56'0 0.1
2017-Oct-12 21:59N 43°25' E 004°56'0 0.1
2017-Oct-12 21:30N 43°25' E 004°56'0 0.1
2017-Oct-12 21:00N 43°25' E 004°56'4 8.8
2017-Oct-12 20:31N 43°21' E 004°59'611.8
2017-Oct-12 20:00N 43°15' E 005°01'611.5
2017-Oct-12 19:30N 43°12' E 005°08'612.2
2017-Oct-12 19:00N 43°17' E 005°11'612.6
2017-Oct-12 18:29N 43°21' E 005°19'3 4.9
2017-Oct-12 17:56N 43°19' E 005°21'0 0.0
2017-Oct-12 17:29N 43°19' E 005°21'0 0.0
2017-Oct-12 16:50N 43°19' E 005°21'0 0.0
2017-Oct-12 16:26N 43°19' E 005°21'0 0.0
2017-Oct-12 15:56N 43°19' E 005°21'0 0.0
2017-Oct-12 07:24N 43°19' E 005°21'1 3.4
2017-Oct-12 07:00N 43°18' E 005°20'4 7.6
2017-Oct-12 06:29N 43°19' E 005°15'711.9
2017-Oct-12 05:55N 43°13' E 005°10'12 9.0
2017-Oct-12 04:32N 43°21' E 004°58'012.6
2017-Oct-12 04:30N 43°21' E 004°58'4 0.1
2017-Oct-11 00:00N 43°25' E 004°56'0 0.0
2017-Oct-10 23:30N 43°25' E 004°56'0 0.0
2017-Oct-10 23:00N 43°25' E 004°56'0 0.0
2017-Oct-10 22:30N 43°25' E 004°56'0 0.0
2017-Oct-10 22:00N 43°25' E 004°56'0 0.0
2017-Oct-10 21:30N 43°25' E 004°56'0 0.0
2017-Oct-10 21:00N 43°25' E 004°56'0 0.0
2017-Oct-10 20:30N 43°25' E 004°56'0 0.0
2017-Oct-10 20:00N 43°25' E 004°56'0 0.0
2017-Oct-10 19:30N 43°25' E 004°56'0 0.0
2017-Oct-10 19:00N 43°25' E 004°56'0 0.0
2017-Oct-10 18:30N 43°25' E 004°56'0 0.0
2017-Oct-10 18:00N 43°25' E 004°56'0 0.0
2017-Oct-10 17:30N 43°25' E 004°56'0 0.0
2017-Oct-10 16:54N 43°25' E 004°56'0 0.0
2017-Oct-10 16:30N 43°25' E 004°56'0 0.0
2017-Oct-10 16:00N 43°25' E 004°56'0 0.0
2017-Oct-10 15:30N 43°25' E 004°56'0 0.0
2017-Oct-10 15:00N 43°25' E 004°56'0 0.0
2017-Oct-10 13:57N 43°25' E 004°55'0 0.0
2017-Oct-10 13:30N 43°25' E 004°55'0 0.0
2017-Oct-10 13:00N 43°25' E 004°55'0 0.1
2017-Oct-10 12:30N 43°25' E 004°55'0 0.1
2017-Oct-10 11:57N 43°25' E 004°55'0 0.0
2017-Oct-10 11:30N 43°25' E 004°55'0 0.0
2017-Oct-10 10:57N 43°25' E 004°55'0 0.0
2017-Oct-10 10:30N 43°25' E 004°55'0 0.0
2017-Oct-10 10:00N 43°25' E 004°55'0 0.0
2017-Oct-10 09:30N 43°25' E 004°55'0 0.0
2017-Oct-10 08:57N 43°25' E 004°55'0 0.0
2017-Oct-10 08:30N 43°25' E 004°55'0 0.0
2017-Oct-10 08:00N 43°25' E 004°55'0 0.0
2017-Oct-10 07:30N 43°25' E 004°55'0 0.0
2017-Oct-10 07:00N 43°25' E 004°55'0 0.0
2017-Oct-10 06:30N 43°25' E 004°55'0 0.0
2017-Oct-10 06:00N 43°25' E 004°55'0 0.0
2017-Oct-10 05:30N 43°25' E 004°56'0 0.0
2017-Oct-10 05:00N 43°25' E 004°56'0 0.0
2017-Oct-10 04:30N 43°25' E 004°56'0 0.0
2017-Oct-10 04:00N 43°25' E 004°56'0 0.0
2017-Oct-10 03:30N 43°25' E 004°55'0 0.0
2017-Oct-10 03:00N 43°25' E 004°55'0 0.0
2017-Oct-10 02:30N 43°25' E 004°55'0 0.0
2017-Oct-10 02:00N 43°25' E 004°55'0 0.0
2017-Oct-10 01:30N 43°25' E 004°55'0 0.0
2017-Oct-10 01:00N 43°25' E 004°55'0 0.1
2017-Oct-10 00:30N 43°25' E 004°56'0 0.0
2017-Oct-09 23:57N 43°25' E 004°56'0 0.0
2017-Oct-09 23:30N 43°25' E 004°56'0 0.0
2017-Oct-09 23:00N 43°25' E 004°56'0 0.0
2017-Oct-09 22:30N 43°25' E 004°56'0 0.0
2017-Oct-09 22:00N 43°25' E 004°56'0 0.0
2017-Oct-09 21:30N 43°25' E 004°55'0 0.0
2017-Oct-09 21:00N 43°25' E 004°55'0 0.0
2017-Oct-09 20:30N 43°25' E 004°55'0 0.1
2017-Oct-09 20:00N 43°25' E 004°56'0 0.0
2017-Oct-09 19:30N 43°25' E 004°56'0 0.0
2017-Oct-09 19:00N 43°25' E 004°56'0 0.0
2017-Oct-09 18:30N 43°25' E 004°55'0 0.0
2017-Oct-09 18:00N 43°25' E 004°55'0 0.0
2017-Oct-09 17:30N 43°25' E 004°55'0 0.0
2017-Oct-09 17:00N 43°25' E 004°55'0 0.0
2017-Oct-09 16:30N 43°25' E 004°55'0 0.0
2017-Oct-09 16:00N 43°25' E 004°55'0 0.0
2017-Oct-09 15:27N 43°25' E 004°55'0 0.0
2017-Oct-09 15:00N 43°25' E 004°55'0 0.0
2017-Oct-09 14:30N 43°25' E 004°55'0 0.0
2017-Oct-09 14:00N 43°25' E 004°55'0 0.0
2017-Oct-09 13:30N 43°25' E 004°55'0 0.1
2017-Oct-09 13:00N 43°25' E 004°55'0 0.1
2017-Oct-09 12:30N 43°25' E 004°55'0 0.1
2017-Oct-09 12:00N 43°25' E 004°56'0 0.1
2017-Oct-09 11:30N 43°25' E 004°55'0 0.0
2017-Oct-09 11:00N 43°25' E 004°55'0 0.1
2017-Oct-09 10:30N 43°25' E 004°55'0 0.0
2017-Oct-09 10:00N 43°25' E 004°55'0 0.0
2017-Oct-09 09:30N 43°25' E 004°55'0 0.0
2017-Oct-09 09:00N 43°25' E 004°55'0 0.0
2017-Oct-09 08:27N 43°25' E 004°55'0 0.0
2017-Oct-09 08:00N 43°25' E 004°55'0 0.0
2017-Oct-09 07:30N 43°25' E 004°56'0 0.0
2017-Oct-09 06:45N 43°25' E 004°55'0 0.0
2017-Oct-09 06:30N 43°25' E 004°55'0 0.0
2017-Oct-09 05:57N 43°25' E 004°55'0 0.0
2017-Oct-09 05:21N 43°25' E 004°55'0 0.0
2017-Oct-09 05:00N 43°25' E 004°55'0 0.0
2017-Oct-09 04:30N 43°25' E 004°55'0 0.0
2017-Oct-09 02:27N 43°25' E 004°55'0 0.0
2017-Oct-09 02:00N 43°25' E 004°55'0 0.0
2017-Oct-09 01:24N 43°25' E 004°55'0 0.0
2017-Oct-09 00:27N 43°25' E 004°55'0 0.0
2017-Oct-09 00:00N 43°25' E 004°55'0 0.0
2017-Oct-08 23:30N 43°25' E 004°55'0 0.0
2017-Oct-08 22:54N 43°25' E 004°55'0 0.0
2017-Oct-08 22:30N 43°25' E 004°55'0 0.0
2017-Oct-08 20:33N 43°25' E 004°55'0 0.1
2017-Oct-08 20:30N 43°25' E 004°55'0 0.0
2017-Oct-08 20:00N 43°25' E 004°55'0 0.0
2017-Oct-08 19:27N 43°25' E 004°55'0 0.0
2017-Oct-08 18:03N 43°25' E 004°55'0 0.0
2017-Oct-08 18:00N 43°25' E 004°55'0 0.0
2017-Oct-08 17:27N 43°25' E 004°55'0 0.0
2017-Oct-08 16:21N 43°25' E 004°55'0 0.0
2017-Oct-08 16:00N 43°25' E 004°55'  

Dump ship's entire track history